Time;durP1;ratioP1;P1;durP2;ratioP2;P2;SDS_P1;SDS_P2;PMS_P1;PMS_P2;Temp;Humidity;BMP_temperature;BMP_pressure;BME280_temperature;BME280_humidity;BME280_pressure;Samples;Min_cycle;Max_cycle;Signal;HPM_P1;HPM_P2
2021/08/29 00:00:17;;;;;;;21.65;8.70;;;;;;;13.24;100.00;102025.88;5082677;28;20028;-58
2021/08/29 00:02:43;;;;;;;25.02;9.27;;;;;;;13.22;100.00;102020.53;5084322;28;20028;-60
2021/08/29 00:05:09;;;;;;;23.25;9.23;;;;;;;13.32;100.00;102020.63;5081231;28;20017;-59
2021/08/29 00:07:34;;;;;;;23.60;9.18;;;;;;;13.37;100.00;102016.31;5084582;28;20099;-58
2021/08/29 00:09:59;;;;;;;23.05;9.40;;;;;;;13.42;100.00;102009.28;5082135;28;20098;-61
2021/08/29 00:12:26;;;;;;;22.55;9.10;;;;;;;13.45;100.00;102019.94;5065268;28;20044;-58
2021/08/29 00:14:51;;;;;;;22.73;9.00;;;;;;;13.45;100.00;102014.63;5083008;28;20089;-59
2021/08/29 00:17:17;;;;;;;23.05;9.05;;;;;;;13.53;100.00;102012.06;5081706;28;20470;-58
2021/08/29 00:19:42;;;;;;;22.77;8.93;;;;;;;13.60;100.00;102008.56;5084313;28;20027;-59
2021/08/29 00:22:08;;;;;;;21.98;8.55;;;;;;;13.59;100.00;102002.38;5081712;28;20112;-60
2021/08/29 00:24:33;;;;;;;22.52;8.63;;;;;;;13.62;100.00;102003.31;5082640;28;20074;-60
2021/08/29 00:26:58;;;;;;;22.52;8.63;;;;;;;13.59;100.00;102002.38;5082209;28;20024;-59
2021/08/29 00:29:24;;;;;;;21.98;8.35;;;;;;;13.64;100.00;102004.19;5084157;28;20031;-62
2021/08/29 00:31:49;;;;;;;22.95;8.85;;;;;;;13.59;100.00;102002.38;5080786;28;20024;-59
2021/08/29 00:34:15;;;;;;;21.60;8.70;;;;;;;13.63;100.00;102005.97;5084471;28;20028;-58
2021/08/29 00:36:40;;;;;;;22.30;8.85;;;;;;;13.68;100.00;102006.03;5081631;28;20406;-58
2021/08/29 00:39:05;;;;;;;22.63;9.23;;;;;;;13.68;100.00;102003.38;5082973;28;20063;-58
2021/08/29 00:41:31;;;;;;;23.40;9.20;;;;;;;13.63;100.00;101998.00;5082580;28;20036;-59
2021/08/29 00:43:57;;;;;;;22.33;9.10;;;;;;;13.63;100.00;101999.75;5082028;28;20028;-62
2021/08/29 00:46:23;;;;;;;22.75;8.85;;;;;;;13.62;100.00;101998.88;5083793;28;20024;-58
2021/08/29 00:48:52;;;;;;;21.40;8.90;;;;;;;13.73;100.00;102002.53;5080831;28;20078;-59
2021/08/29 00:51:18;;;;;;;22.88;9.55;;;;;;;13.70;100.00;101994.53;5066722;28;20028;-59
2021/08/29 00:53:52;;;;;;;23.23;9.43;;;;;;;13.62;100.00;102001.53;5083172;28;20085;-60
2021/08/29 00:56:17;;;;;;;23.65;9.25;;;;;;;13.66;100.00;101997.13;5085049;28;20024;-59
2021/08/29 00:58:43;;;;;;;24.70;9.63;;;;;;;13.56;100.00;101996.16;5088311;28;20031;-59
2021/08/29 01:01:10;;;;;;;22.85;9.30;;;;;;;13.65;100.00;101998.03;5085689;28;20382;-58
2021/08/29 01:03:36;;;;;;;23.65;9.25;;;;;;;13.63;100.00;101998.00;5087069;28;20021;-59
2021/08/29 01:06:16;;;;;;;22.67;9.07;;;;;;;13.63;100.00;101998.00;5086862;28;20024;-59
2021/08/29 01:08:43;;;;;;;23.70;9.70;;;;;;;13.60;100.00;101992.63;5087549;28;20382;-64
2021/08/29 01:11:13;;;;;;;22.45;9.38;;;;;;;13.62;100.00;101998.00;5085557;28;20032;-58
2021/08/29 01:13:45;;;;;;;23.95;9.45;;;;;;;13.64;100.00;101993.56;5087201;28;20033;-60
2021/08/29 01:16:13;;;;;;;24.58;10.00;;;;;;;13.60;100.00;101998.84;5066797;28;20387;-63
2021/08/29 01:18:41;;;;;;;23.73;9.50;;;;;;;13.66;100.00;101991.81;5087027;28;20134;-61
2021/08/29 01:21:11;;;;;;;23.48;9.48;;;;;;;13.70;100.00;101993.63;5085310;28;20020;-58
2021/08/29 01:23:39;;;;;;;24.58;9.52;;;;;;;13.77;100.00;101993.72;5082167;28;20130;-61
2021/08/29 01:26:29;;;;;;;21.88;9.10;;;;;;;13.81;100.00;101991.97;5084026;28;20111;-58
2021/08/29 01:28:56;;;;;;;23.20;9.13;;;;;;;13.72;100.00;101994.56;5084342;28;20047;-63
2021/08/29 01:31:25;;;;;;;22.98;9.50;;;;;;;13.68;100.00;101987.41;5087028;28;20032;-60
2021/08/29 01:33:51;;;;;;;22.45;9.00;;;;;;;13.75;100.00;101994.56;5084453;28;20028;-60
2021/08/29 01:36:18;;;;;;;23.92;9.27;;;;;;;13.78;100.00;101987.50;5086560;28;20056;-59
2021/08/29 01:38:46;;;;;;;23.67;9.02;;;;;;;13.81;100.00;101993.75;5085568;28;20024;-59
2021/08/29 01:41:14;;;;;;;21.83;8.60;;;;;;;13.78;100.00;101987.50;5085539;28;20036;-60
2021/08/29 01:43:41;;;;;;;23.15;9.35;;;;;;;13.81;100.00;101989.31;5086071;28;20032;-59
2021/08/29 01:46:07;;;;;;;22.83;9.32;;;;;;;13.80;100.00;101987.53;5085003;28;20036;-59
2021/08/29 01:48:33;;;;;;;24.83;9.63;;;;;;;13.78;100.00;101982.19;5086683;28;20516;-58
2021/08/29 01:50:59;;;;;;;24.40;9.70;;;;;;;13.77;100.00;101983.09;5083792;28;20471;-57
2021/08/29 01:53:24;;;;;;;23.70;9.10;;;;;;;13.85;100.00;101983.16;5083553;28;20036;-59
2021/08/29 01:55:50;;;;;;;23.55;9.40;;;;;;;13.85;100.00;101983.16;5086409;28;20024;-63
2021/08/29 01:58:16;;;;;;;24.10;9.20;;;;;;;13.85;100.00;101988.47;5066867;28;20052;-60
2021/08/29 02:00:51;;;;;;;24.02;8.95;;;;;;;13.87;100.00;101986.69;5085103;28;20064;-59
2021/08/29 02:03:17;;;;;;;23.27;8.63;;;;;;;13.85;100.00;101985.81;5084312;28;20040;-59
2021/08/29 02:05:45;;;;;;;23.55;9.07;;;;;;;13.92;100.00;101994.72;5085430;28;20024;-59
2021/08/29 02:08:14;;;;;;;23.08;8.98;;;;;;;13.90;100.00;101994.69;5085538;28;20024;-58
2021/08/29 02:10:40;;;;;;;24.35;8.98;;;;;;;13.97;100.00;101997.44;5084519;28;20535;-62
2021/08/29 02:13:09;;;;;;;22.85;8.73;;;;;;;13.98;100.00;101988.56;5086009;28;20107;-59
2021/08/29 02:15:40;;;;;;;22.83;8.40;;;;;;;14.00;100.00;101992.13;5084107;28;20036;-62
2021/08/29 02:18:11;;;;;;;23.85;8.48;;;;;;;14.04;100.00;101993.94;5086004;28;20470;-58
2021/08/29 02:20:37;;;;;;;23.77;8.70;;;;;;;14.02;100.00;101998.34;5084016;28;20035;-59
2021/08/29 02:23:04;;;;;;;24.50;8.45;;;;;;;14.04;100.00;101993.94;5086301;28;20032;-58
2021/08/29 02:25:30;;;;;;;22.08;8.38;;;;;;;14.06;100.00;101986.88;5083085;28;20016;-69
2021/08/29 02:27:56;;;;;;;24.05;9.10;;;;;;;14.02;100.00;101990.38;5083069;28;20028;-68
2021/08/29 02:30:21;;;;;;;23.73;8.80;;;;;;;14.04;100.00;101992.16;5086132;28;20355;-69
2021/08/29 02:32:50;;;;;;;23.20;8.30;;;;;;;14.03;100.00;101992.16;5083985;28;20052;-69
2021/08/29 02:35:15;;;;;;;22.48;8.38;;;;;;;14.07;100.00;101980.69;5085047;28;20035;-68
2021/08/29 02:37:42;;;;;;;23.80;8.57;;;;;;;14.07;100.00;101981.56;5084954;28;20453;-69
2021/08/29 02:40:09;;;;;;;21.30;8.05;;;;;;;14.06;100.00;101986.88;5083818;28;20056;-70
2021/08/29 02:42:35;;;;;;;23.15;8.40;;;;;;;14.11;100.00;101985.13;5084936;28;20540;-69
2021/08/29 02:45:04;;;;;;;23.00;8.80;;;;;;;14.06;100.00;101986.88;5082770;28;20032;-69
2021/08/29 02:47:30;;;;;;;23.63;8.75;;;;;;;14.05;100.00;101983.31;5086102;28;20024;-68
2021/08/29 02:49:56;;;;;;;22.73;8.57;;;;;;;14.07;100.00;101978.91;5082857;28;20425;-69
2021/08/29 02:52:22;;;;;;;24.33;8.70;;;;;;;14.09;100.00;101976.25;5085602;28;20060;-69
2021/08/29 02:54:51;;;;;;;22.75;8.23;;;;;;;14.08;100.00;101977.13;5083502;28;20028;-68
2021/08/29 02:57:17;;;;;;;22.77;8.80;;;;;;;14.11;100.00;101979.78;5084866;28;20025;-69
2021/08/29 02:59:43;;;;;;;24.00;8.63;;;;;;;14.10;100.00;101972.72;5084208;28;20043;-68
2021/08/29 03:02:10;;;;;;;23.08;8.43;;;;;;;14.10;100.00;101972.72;5083335;28;20028;-69
2021/08/29 03:04:36;;;;;;;22.52;8.30;;;;;;;14.07;100.00;101973.59;5085081;28;20024;-69
2021/08/29 03:07:02;;;;;;;22.65;8.20;;;;;;;14.08;100.00;101971.81;5082521;28;20074;-70
2021/08/29 03:09:33;;;;;;;21.92;7.50;;;;;;;14.13;100.00;101970.09;5085724;28;20016;-67
2021/08/29 03:12:04;;;;;;;23.17;7.95;;;;;;;14.16;100.00;101970.09;5082309;28;20116;-59
2021/08/29 03:14:31;;;;;;;22.90;8.02;;;;;;;14.15;100.00;101975.41;5082077;28;20039;-60
2021/08/29 03:16:58;;;;;;;22.88;8.30;;;;;;;14.15;100.00;101973.63;5081685;28;20021;-62
2021/08/29 03:19:24;;;;;;;21.63;7.68;;;;;;;14.18;100.00;101975.44;5085135;28;20106;-64
2021/08/29 03:21:49;;;;;;;20.77;7.32;;;;;;;14.23;100.00;101969.28;5082918;28;20066;-63
2021/08/29 03:24:15;;;;;;;22.38;7.93;;;;;;;14.24;100.00;101975.47;5083842;28;20020;-58
2021/08/29 03:26:40;;;;;;;21.45;7.28;;;;;;;14.20;100.00;101968.34;5083942;28;20050;-62
2021/08/29 03:29:06;;;;;;;21.65;7.07;;;;;;;14.24;100.00;101960.41;5082757;28;20025;-69
2021/08/29 03:31:31;;;;;;;22.58;7.60;;;;;;;14.23;100.00;101957.75;5085176;28;20034;-69
2021/08/29 03:33:59;;;;;;;22.65;7.97;;;;;;;14.22;100.00;101963.94;5082054;28;20371;-69
2021/08/29 03:36:29;;;;;;;23.02;7.80;;;;;;;14.23;100.00;101958.63;5085053;28;20089;-65
2021/08/29 03:38:55;;;;;;;23.33;7.72;;;;;;;14.27;100.00;101947.13;5082214;28;20021;-70
2021/08/29 03:41:22;;;;;;;22.80;7.20;;;;;;;14.26;100.00;101957.78;5084396;28;20110;-70
2021/08/29 03:43:48;;;;;;;21.40;7.57;;;;;;;14.29;100.00;101952.47;5082810;28;20024;-69
2021/08/29 03:46:15;;;;;;;22.55;7.88;;;;;;;14.26;100.00;101952.44;5083458;28;20446;-69
2021/08/29 03:48:40;;;;;;;24.02;7.32;;;;;;;14.25;100.00;101962.19;5083638;28;20035;-60
2021/08/29 03:51:07;;;;;;;21.33;7.30;;;;;;;14.26;100.00;101952.44;5082484;28;20032;-59
2021/08/29 03:53:34;;;;;;;22.45;7.38;;;;;;;14.27;100.00;101948.88;5066839;28;20028;-58
2021/08/29 03:55:59;;;;;;;21.67;7.55;;;;;;;14.29;100.00;101953.34;5081658;28;20098;-59
2021/08/29 03:58:25;;;;;;;21.63;7.40;;;;;;;14.28;100.00;101945.34;5084815;28;20479;-59
2021/08/29 04:00:50;;;;;;;21.45;7.75;;;;;;;14.30;100.00;101955.13;5081833;28;20040;-60
2021/08/29 04:03:16;;;;;;;23.60;7.75;;;;;;;14.27;100.00;101947.13;5083291;28;20036;-59
2021/08/29 04:05:41;;;;;;;23.25;7.95;;;;;;;14.28;100.00;101946.28;5083377;28;20103;-59
2021/08/29 04:08:12;;;;;;;22.90;7.95;;;;;;;14.32;100.00;101941.84;5082125;28;20021;-58
2021/08/29 04:10:42;;;;;;;23.13;8.20;;;;;;;14.28;100.00;101945.34;5084015;28;20158;-59
2021/08/29 04:13:08;;;;;;;22.67;7.80;;;;;;;14.28;100.00;101945.34;5082105;28;20031;-59
2021/08/29 04:15:36;;;;;;;22.55;7.93;;;;;;;14.23;100.00;101945.34;5084508;28;20119;-60
2021/08/29 04:18:05;;;;;;;23.67;7.95;;;;;;;14.25;100.00;101940.03;5081263;28;20055;-59
2021/08/29 04:20:30;;;;;;;22.67;8.13;;;;;;;14.25;100.00;101940.91;5084441;28;20470;-60
2021/08/29 04:22:56;;;;;;;22.83;8.05;;;;;;;14.22;100.00;101945.31;5081396;28;20030;-63
2021/08/29 04:25:22;;;;;;;22.08;8.05;;;;;;;14.19;100.00;101940.00;5083741;28;20058;-58
2021/08/29 04:27:47;;;;;;;23.15;8.25;;;;;;;14.17;100.00;101942.63;5082204;28;20110;-62
2021/08/29 04:30:13;;;;;;;24.42;8.45;;;;;;;14.16;100.00;101938.19;5082468;28;20052;-61
2021/08/29 04:32:43;;;;;;;22.00;8.50;;;;;;;14.19;100.00;101930.22;5083398;28;20063;-62
2021/08/29 04:35:08;;;;;;;23.70;8.77;;;;;;;14.16;100.00;101929.34;5082066;28;20052;-58
2021/08/29 04:37:34;;;;;;;21.85;8.48;;;;;;;14.16;100.00;101929.34;5083973;28;20484;-69
2021/08/29 04:40:00;;;;;;;25.17;8.23;;;;;;;14.14;100.00;101926.66;5080890;28;20032;-69
2021/08/29 04:42:25;;;;;;;23.52;8.35;;;;;;;14.17;100.00;101926.69;5084309;28;20048;-69
2021/08/29 04:44:51;;;;;;;21.73;7.85;;;;;;;14.15;100.00;101930.22;5081370;28;20506;-69
2021/08/29 04:47:16;;;;;;;24.33;8.50;;;;;;;14.15;100.00;101932.88;5082797;28;20025;-69
2021/08/29 04:49:41;;;;;;;24.55;8.27;;;;;;;14.14;100.00;101929.31;5082948;28;20074;-68
2021/08/29 04:52:07;;;;;;;22.85;7.93;;;;;;;14.21;100.00;101933.81;5081420;28;20033;-69
2021/08/29 04:54:32;;;;;;;22.60;8.00;;;;;;;14.14;100.00;101934.66;5084089;28;20023;-70
2021/08/29 04:56:57;;;;;;;22.45;7.97;;;;;;;14.19;100.00;101935.56;5081051;28;20510;-69
2021/08/29 04:59:23;;;;;;;23.35;8.45;;;;;;;14.27;100.00;101938.25;5083450;28;20028;-69
2021/08/29 05:01:48;;;;;;;21.88;8.20;;;;;;;14.27;100.00;101932.94;5081803;28;20035;-68
2021/08/29 05:04:13;;;;;;;22.52;8.00;;;;;;;14.30;100.00;101922.34;5082452;28;20052;-67
2021/08/29 05:06:38;;;;;;;22.25;8.13;;;;;;;14.29;100.00;101936.50;5083014;28;20405;-68
2021/08/29 05:09:04;;;;;;;23.08;7.35;;;;;;;14.30;100.00;101928.53;5081367;28;20060;-70
2021/08/29 05:11:29;;;;;;;21.63;7.80;;;;;;;14.27;100.00;101933.84;5083830;28;20060;-68
2021/08/29 05:13:54;;;;;;;22.27;7.80;;;;;;;14.28;100.00;101922.34;5081066;28;20071;-69
2021/08/29 05:16:20;;;;;;;24.15;7.90;;;;;;;14.28;100.00;101925.00;5083169;28;20103;-68
2021/08/29 05:18:45;;;;;;;22.95;7.63;;;;;;;14.28;100.00;101919.66;5081964;28;20028;-69
2021/08/29 05:21:10;;;;;;;23.02;7.47;;;;;;;14.29;100.00;101934.72;5081646;28;20024;-69
2021/08/29 05:23:36;;;;;;;21.23;7.32;;;;;;;14.33;100.00;101937.41;5065572;28;20374;-70
2021/08/29 05:26:01;;;;;;;23.48;7.47;;;;;;;14.33;100.00;101932.09;5080415;28;20027;-69
2021/08/29 05:28:27;;;;;;;20.65;7.28;;;;;;;14.45;100.00;101926.84;5080400;28;20019;-69
2021/08/29 05:30:52;;;;;;;21.92;6.88;;;;;;;14.40;100.00;101928.56;5083251;28;20028;-69
2021/08/29 05:33:18;;;;;;;21.90;7.47;;;;;;;14.41;100.00;101927.72;5081331;28;20088;-68
2021/08/29 05:35:43;;;;;;;23.85;7.03;;;;;;;14.42;100.00;101940.13;5082109;28;20025;-70
2021/08/29 05:38:08;;;;;;;22.48;6.95;;;;;;;14.45;100.00;101932.16;5082948;28;20035;-69
2021/08/29 05:40:34;;;;;;;20.20;6.68;;;;;;;14.48;100.00;101942.81;5083735;28;20055;-69
2021/08/29 05:42:59;;;;;;;21.92;7.18;;;;;;;14.49;100.00;101939.28;5087436;28;20044;-58
2021/08/29 05:45:24;;;;;;;22.55;6.70;;;;;;;14.52;100.00;101949.94;5084208;28;20035;-58
2021/08/29 05:47:50;;;;;;;22.00;6.80;;;;;;;14.53;100.00;101941.06;5086216;28;20062;-60
2021/08/29 05:50:15;;;;;;;22.90;6.85;;;;;;;14.58;100.00;101942.00;5067175;28;20047;-58
2021/08/29 05:52:40;;;;;;;22.42;6.75;;;;;;;14.56;100.00;101937.53;5084817;28;20025;-58
2021/08/29 05:55:06;;;;;;;23.25;6.68;;;;;;;14.59;100.00;101949.09;5086864;28;20016;-58
2021/08/29 05:57:31;;;;;;;21.65;6.53;;;;;;;14.60;99.74;101948.19;5083873;28;20021;-58
2021/08/29 05:59:57;;;;;;;21.70;6.57;;;;;;;14.59;100.00;101945.53;5087602;28;20458;-58
2021/08/29 06:02:22;;;;;;;21.88;6.80;;;;;;;14.63;100.00;101937.63;5084065;28;20388;-60
2021/08/29 06:04:47;;;;;;;22.63;6.70;;;;;;;14.62;100.00;101934.94;5085709;28;20037;-63
2021/08/29 06:07:13;;;;;;;22.83;6.35;;;;;;;14.63;100.00;101937.63;5085704;28;20031;-61
2021/08/29 06:09:38;;;;;;;22.67;6.65;;;;;;;14.66;100.00;101943.84;5084037;28;20462;-58
2021/08/29 06:12:04;;;;;;;22.48;6.72;;;;;;;14.73;100.00;101937.66;5086810;28;20028;-58
2021/08/29 06:14:29;;;;;;;21.35;6.47;;;;;;;14.77;100.00;101936.81;5083237;28;20025;-58
2021/08/29 06:16:54;;;;;;;21.50;6.40;;;;;;;14.78;100.00;101936.81;5086546;28;20020;-62
2021/08/29 06:19:19;;;;;;;21.77;6.47;;;;;;;14.87;99.41;101929.72;5085008;28;20119;-58
2021/08/29 06:21:45;;;;;;;23.35;6.85;;;;;;;14.90;99.17;101930.63;5087654;28;20034;-61
2021/08/29 06:24:10;;;;;;;22.25;6.60;;;;;;;14.94;99.22;101931.53;5089809;28;20029;-58
2021/08/29 06:26:35;;;;;;;21.33;6.78;;;;;;;15.02;99.05;101934.22;5088024;28;20047;-59
2021/08/29 06:29:01;;;;;;;21.13;6.60;;;;;;;15.08;98.07;101940.44;5090586;28;20435;-59
2021/08/29 06:31:26;;;;;;;21.05;6.10;;;;;;;15.12;97.77;101936.91;5087796;28;20020;-59
2021/08/29 06:33:52;;;;;;;21.67;6.65;;;;;;;15.16;97.14;101935.16;5091072;28;20028;-59
2021/08/29 06:36:17;;;;;;;21.58;6.07;;;;;;;15.23;97.19;101939.63;5088941;28;20036;-61
2021/08/29 06:38:42;;;;;;;22.33;6.80;;;;;;;15.27;96.20;101936.06;5086461;28;20094;-59
2021/08/29 06:41:08;;;;;;;22.35;6.25;;;;;;;15.29;96.35;101939.63;5088891;28;20474;-59
2021/08/29 06:43:34;;;;;;;21.35;6.70;;;;;;;15.34;96.37;101932.50;5090534;28;20442;-59
2021/08/29 06:45:59;;;;;;;24.00;6.30;;;;;;;15.47;94.72;101929.88;5088993;28;20385;-60
2021/08/29 06:48:24;;;;;;;24.48;6.75;;;;;;;15.56;94.60;101935.22;5090119;28;20114;-60
2021/08/29 06:50:50;;;;;;;20.33;6.22;;;;;;;15.61;94.07;101936.13;5086712;28;20056;-59
2021/08/29 06:53:15;;;;;;;22.65;6.22;;;;;;;15.61;93.71;101930.78;5089675;28;20456;-59
2021/08/29 06:55:41;;;;;;;23.85;6.10;;;;;;;15.59;93.58;101932.53;5085853;28;20060;-59
2021/08/29 06:58:06;;;;;;;22.05;6.10;;;;;;;15.63;94.30;101929.00;5090173;28;20096;-60
2021/08/29 07:00:31;;;;;;;21.92;5.70;;;;;;;15.75;93.38;101929.91;5091529;28;20374;-60
2021/08/29 07:02:57;;;;;;;20.83;5.75;;;;;;;15.84;91.65;101922.84;5091058;28;20422;-59
2021/08/29 07:05:22;;;;;;;20.10;5.30;;;;;;;15.91;91.83;101917.50;5087362;28;20024;-59
2021/08/29 07:07:47;;;;;;;22.17;5.93;;;;;;;15.95;90.21;101917.47;5067308;28;20466;-59
2021/08/29 07:10:13;;;;;;;22.15;5.70;;;;;;;15.96;90.79;101926.34;5067209;28;20413;-60
2021/08/29 07:12:38;;;;;;;22.30;5.50;;;;;;;15.94;90.45;101928.16;5087600;28;20057;-61
2021/08/29 07:15:05;;;;;;;21.95;5.85;;;;;;;15.96;90.19;101929.03;5085764;28;20466;-60
2021/08/29 07:17:30;;;;;;;20.33;5.28;;;;;;;15.95;89.56;101913.94;5086964;28;20493;-59
2021/08/29 07:19:56;;;;;;;21.95;5.38;;;;;;;15.88;90.89;101918.38;5089266;28;20020;-59
2021/08/29 07:22:22;;;;;;;21.50;5.50;;;;;;;16.00;89.20;101923.72;5087341;28;20331;-63
2021/08/29 07:24:47;;;;;;;19.13;5.30;;;;;;;15.92;89.77;101922.81;5086776;28;20463;-60
2021/08/29 07:27:12;;;;;;;21.95;5.40;;;;;;;15.84;90.95;101921.91;5085978;28;20081;-60
2021/08/29 07:29:38;;;;;;;23.02;5.22;;;;;;;15.83;91.96;101930.84;5090376;28;20373;-60
2021/08/29 07:32:04;;;;;;;22.80;5.30;;;;;;;15.91;91.59;101928.16;5090054;28;20473;-60
2021/08/29 07:34:29;;;;;;;23.55;5.30;;;;;;;15.91;91.40;101929.03;5083780;28;20040;-69
2021/08/29 07:36:54;;;;;;;21.65;5.47;;;;;;;15.95;90.80;101927.28;5087525;28;20026;-63
2021/08/29 07:39:20;;;;;;;20.80;5.13;;;;;;;16.03;89.00;101918.38;5091543;28;20028;-70
2021/08/29 07:41:46;;;;;;;23.35;5.45;;;;;;;15.97;90.60;101917.47;5088847;28;20104;-65
2021/08/29 07:44:11;;;;;;;21.52;5.32;;;;;;;16.02;89.33;101921.91;5086759;28;20032;-66
2021/08/29 07:46:36;;;;;;;19.70;5.00;;;;;;;15.95;89.70;101919.28;5087536;28;20538;-59
2021/08/29 07:49:02;;;;;;;23.08;5.43;;;;;;;15.96;89.34;101919.25;5080082;28;20547;-65
2021/08/29 07:51:27;;;;;;;23.48;5.38;;;;;;;15.94;89.53;101914.81;5088973;28;20028;-59
2021/08/29 07:53:53;;;;;;;20.05;4.82;;;;;;;16.00;87.86;101915.72;5086803;28;20016;-59
2021/08/29 07:56:18;;;;;;;24.75;5.57;;;;;;;15.88;89.53;101915.72;5083202;28;20054;-71
2021/08/29 07:58:43;;;;;;;22.77;5.10;;;;;;;15.84;89.41;101917.50;5083858;28;20044;-71
2021/08/29 08:01:08;;;;;;;22.88;5.20;;;;;;;15.92;88.76;101909.47;5081927;28;20074;-70
2021/08/29 08:03:35;;;;;;;21.38;4.95;;;;;;;15.83;89.59;101904.16;5084631;28;20443;-67
2021/08/29 08:06:05;;;;;;;22.92;5.20;;;;;;;15.85;89.71;101913.03;5081582;28;20043;-60
2021/08/29 08:08:30;;;;;;;19.20;4.65;;;;;;;15.83;89.93;101909.50;5081180;28;20368;-71
2021/08/29 08:10:56;;;;;;;21.02;5.30;;;;;;;15.85;88.29;101905.03;5084002;28;20035;-60
2021/08/29 08:13:21;;;;;;;22.05;5.22;;;;;;;15.81;89.13;101908.59;5082418;28;20047;-62
2021/08/29 08:15:47;;;;;;;22.52;5.22;;;;;;;15.91;88.38;101904.16;5082914;28;20079;-60
2021/08/29 08:18:12;;;;;;;20.00;5.13;;;;;;;15.85;87.63;101915.72;5083541;28;20115;-61
2021/08/29 08:20:37;;;;;;;21.08;5.53;;;;;;;15.86;88.89;101917.50;5081896;28;20036;-60
2021/08/29 08:23:02;;;;;;;22.30;5.15;;;;;;;15.91;88.00;101918.38;5084656;28;20027;-63
2021/08/29 08:25:28;;;;;;;21.25;5.00;;;;;;;15.95;87.57;101914.81;5081168;28;20446;-60
2021/08/29 08:27:53;;;;;;;22.55;5.22;;;;;;;15.95;87.43;101909.47;5083582;28;20029;-61
2021/08/29 08:30:18;;;;;;;22.65;5.40;;;;;;;16.08;86.50;101915.69;5082761;28;20107;-61
2021/08/29 08:32:44;;;;;;;19.17;5.10;;;;;;;16.14;85.47;101904.13;5081928;28;20053;-62
2021/08/29 08:35:09;;;;;;;21.38;5.07;;;;;;;16.06;86.48;101921.91;5084443;28;20032;-59
2021/08/29 08:37:35;;;;;;;22.02;5.10;;;;;;;16.13;86.45;101915.69;5082557;28;20489;-58
2021/08/29 08:40:00;;;;;;;22.95;5.60;;;;;;;16.16;85.54;101937.00;5083631;28;20103;-58
2021/08/29 08:42:26;;;;;;;21.88;5.45;;;;;;;16.10;85.37;101913.00;5090455;28;20505;-67
2021/08/29 08:44:51;;;;;;;23.23;5.18;;;;;;;16.09;85.55;101908.56;5084710;28;20031;-68
2021/08/29 08:47:18;;;;;;;24.45;5.78;;;;;;;16.05;86.79;101915.69;5086799;28;20047;-66
2021/08/29 08:49:45;;;;;;;21.80;4.90;;;;;;;16.12;86.71;101927.22;5067872;28;20047;-67
2021/08/29 08:52:16;;;;;;;23.83;5.90;;;;;;;16.09;86.14;101927.22;5086610;28;20031;-67
2021/08/29 08:54:42;;;;;;;21.58;5.25;;;;;;;16.08;85.25;101925.47;5088071;28;20024;-68
2021/08/29 08:57:08;;;;;;;21.40;4.82;;;;;;;16.03;85.66;101931.69;5086802;28;20121;-67
2021/08/29 08:59:35;;;;;;;20.38;5.32;;;;;;;16.02;85.66;101927.25;5085450;28;20458;-70
2021/08/29 09:02:00;;;;;;;21.95;5.15;;;;;;;16.04;84.92;101928.13;5087154;28;20051;-69
2021/08/29 09:04:26;;;;;;;19.38;4.70;;;;;;;16.00;86.42;101926.38;5087764;28;20024;-69
2021/08/29 09:06:51;;;;;;;22.88;5.13;;;;;;;16.08;85.55;101925.47;5084070;28;20026;-69
2021/08/29 09:09:16;;;;;;;21.90;5.10;;;;;;;16.13;85.69;101929.00;5086598;28;20099;-66
2021/08/29 09:11:42;;;;;;;22.35;5.20;;;;;;;16.27;84.70;101921.00;5087555;28;20082;-70
2021/08/29 09:14:08;;;;;;;21.80;5.03;;;;;;;16.29;84.44;101917.41;5087372;28;20470;-68
2021/08/29 09:16:33;;;;;;;19.83;4.80;;;;;;;16.34;87.31;101923.63;5089552;28;20032;-69
2021/08/29 09:19:01;;;;;;;21.95;5.28;;;;;;;16.32;87.14;101920.06;5091438;28;20020;-67
2021/08/29 09:21:38;;;;;;;23.40;5.25;;;;;;;16.22;88.43;101923.66;5090720;28;20504;-70
2021/08/29 09:24:09;;;;;;;20.70;5.03;;;;;;;16.17;89.52;101926.31;5087046;28;20103;-66
2021/08/29 09:26:42;;;;;;;22.25;5.20;;;;;;;16.20;91.23;101920.09;5087090;28;20032;-67
2021/08/29 09:29:20;;;;;;;20.85;5.22;;;;;;;16.18;90.63;101920.13;5089977;28;20081;-69
2021/08/29 09:31:47;;;;;;;20.40;5.47;;;;;;;16.16;90.09;101916.56;5070921;28;20055;-69
2021/08/29 09:34:17;;;;;;;20.63;5.35;;;;;;;16.14;90.49;101915.66;5092887;28;20024;-58
2021/08/29 09:36:43;;;;;;;21.75;5.22;;;;;;;16.01;89.38;101917.47;5088175;28;20378;-60
2021/08/29 09:39:26;;;;;;;21.80;5.20;;;;;;;16.04;90.97;101920.13;5086392;28;20119;-59
2021/08/29 09:42:02;;;;;;;22.52;5.38;;;;;;;16.17;91.53;101915.66;5086138;28;20472;-59
2021/08/29 09:44:32;;;;;;;22.75;5.45;;;;;;;16.23;89.91;101911.22;5087496;28;20078;-59
2021/08/29 09:47:01;;;;;;;22.10;5.50;;;;;;;16.11;91.67;101920.13;5090153;28;20465;-59
2021/08/29 09:49:30;;;;;;;20.33;5.50;;;;;;;16.09;93.07;101921.91;5089206;28;20474;-59
2021/08/29 09:51:57;;;;;;;21.83;5.70;;;;;;;16.08;92.56;101922.81;5085274;28;20024;-59
2021/08/29 09:54:37;;;;;;;23.23;5.88;;;;;;;16.08;92.71;101905.03;5085072;28;20026;-59
2021/08/29 09:57:11;;;;;;;22.27;5.80;;;;;;;15.96;94.78;101921.94;5083876;28;20028;-59
2021/08/29 09:59:36;;;;;;;22.23;5.97;;;;;;;15.92;95.23;101925.47;5088814;28;20103;-59
2021/08/29 10:02:02;;;;;;;20.98;5.80;;;;;;;15.94;96.79;101917.47;5088146;28;20016;-59
2021/08/29 10:04:27;;;;;;;23.25;6.10;;;;;;;16.01;95.22;101919.25;5088059;28;20030;-59
2021/08/29 10:06:53;;;;;;;21.30;5.40;;;;;;;16.11;92.71;101906.81;5089381;28;20044;-59
2021/08/29 10:09:27;;;;;;;22.98;5.68;;;;;;;16.24;96.81;101919.22;5086486;28;20126;-59
2021/08/29 10:11:53;;;;;;;23.63;5.78;;;;;;;16.33;94.90;101916.50;5082980;28;20147;-60
2021/08/29 10:14:21;;;;;;;20.50;5.20;;;;;;;16.35;93.98;101914.75;5088540;28;20546;-59
2021/08/29 10:16:47;;;;;;;21.92;5.63;;;;;;;16.27;94.18;101905.88;5089009;28;20431;-59
2021/08/29 10:19:15;;;;;;;22.15;5.80;;;;;;;16.27;94.34;101905.88;5087878;28;20059;-59
2021/08/29 10:21:41;;;;;;;22.48;5.30;;;;;;;16.28;95.15;101904.06;5090918;28;20375;-59
2021/08/29 10:24:10;;;;;;;21.45;5.40;;;;;;;16.45;94.27;101904.03;5090373;28;20028;-60
2021/08/29 10:26:40;;;;;;;21.13;5.18;;;;;;;16.57;94.67;101903.97;5085568;28;20502;-59
2021/08/29 10:29:11;;;;;;;20.70;5.25;;;;;;;16.67;93.09;101896.84;5089300;28;20410;-59
2021/08/29 10:32:00;;;;;;;22.02;5.50;;;;;;;16.85;93.11;101904.75;5071011;28;20040;-59
2021/08/29 10:34:27;;;;;;;21.48;5.70;;;;;;;16.85;90.23;101898.53;5073510;28;20021;-59
2021/08/29 10:36:54;;;;;;;21.42;5.68;;;;;;;16.69;91.71;101901.28;5086340;28;20417;-60
2021/08/29 10:39:20;;;;;;;22.40;6.03;;;;;;;16.41;93.28;101897.84;5084791;28;20021;-64
2021/08/29 10:41:46;;;;;;;19.95;5.63;;;;;;;16.30;96.36;101895.19;5084258;28;20105;-62
2021/08/29 10:44:14;;;;;;;22.65;6.20;;;;;;;16.23;98.76;101893.44;5083352;28;20035;-62
2021/08/29 10:46:44;;;;;;;22.15;6.18;;;;;;;16.36;100.00;101894.28;5084978;28;20032;-62
2021/08/29 10:49:10;;;;;;;22.02;6.28;;;;;;;16.54;99.44;101887.97;5083022;28;20104;-62
2021/08/29 10:51:36;;;;;;;22.45;5.97;;;;;;;16.74;98.90;101891.44;5085546;28;20024;-73
2021/08/29 10:54:11;;;;;;;22.35;6.32;;;;;;;16.87;93.27;101880.72;5082090;28;20021;-73
2021/08/29 10:56:36;;;;;;;23.40;6.45;;;;;;;16.94;93.71;101884.28;5082155;28;20077;-73
2021/08/29 10:59:08;;;;;;;21.23;6.07;;;;;;;16.92;95.07;101881.63;5068213;28;20024;-73
2021/08/29 11:01:33;;;;;;;21.73;5.88;;;;;;;16.86;93.03;101878.94;5081533;28;20029;-69
2021/08/29 11:03:59;;;;;;;22.80;6.10;;;;;;;16.71;93.35;101882.56;5084966;28;20024;-73
2021/08/29 11:06:43;;;;;;;23.15;6.10;;;;;;;16.51;96.54;101877.31;5083217;28;20108;-73
2021/08/29 11:09:34;;;;;;;24.42;6.05;;;;;;;16.52;97.72;101879.09;5082276;28;20024;-68